Mise à jour: Mardi, 31 août 2010, 04h30 (UTC+4)
Trajectoire complète du système 14 14 CYCLONE tropical IMANI
Date et Heure
en UTC
(soit H+4
à La Réunion)
Longit.


(°Est)
Latitude


(°Sud)
Intensité
Dvorak
analysée
(1.0/8.0)

Type de système
analysé

Pression
minimale
estimée
(hPa)
Vent moyen
sur 10'
maxi estimé
(noeud,km/h)
Rafales
maximales
associées
(noeud,km/h)
20/03/2010 12:00 88.47 6.36 1.0 Zone perturbée 1007 20 kt, 37 km/h 28 kt, 52 km/h
20/03/2010 18:00 88.64 6.62 1.0 Zone perturbée 1007 20 kt, 37 km/h 28 kt, 52 km/h
21/03/2010 00:00 88.80 6.90 1.0 Zone perturbée 1006 20 kt, 37 km/h 28 kt, 52 km/h
21/03/2010 06:00 88.92 7.09 1.5 Zone perturbée 1005 20 kt, 37 km/h 28 kt, 52 km/h
21/03/2010 12:00 89.04 7.32 1.5 Zone perturbée 1004 23 kt, 42 km/h 32 kt, 60 km/h
21/03/2010 18:00 89.57 8.53 2.0 Perturbation tropicale 1003 25 kt, 46 km/h 35 kt, 65 km/h
22/03/2010 00:00 89.88 9.83 2.0 Perturbation tropicale 1002 25 kt, 46 km/h 35 kt, 65 km/h
22/03/2010 06:00 89.87 10.50 2.0 Perturbation tropicale 1001 25 kt, 46 km/h 35 kt, 65 km/h
22/03/2010 12:00 89.68 11.10 2.0 Perturbation tropicale 1000 25 kt, 46 km/h 35 kt, 65 km/h
22/03/2010 18:00 89.30 11.91 2.5 DEPRESSION tropicale 999 28 kt, 51 km/h 39 kt, 73 km/h
23/03/2010 00:00 89.13 12.46 2.5 DEPRESSION tropicale 999 28 kt, 51 km/h 39 kt, 73 km/h
23/03/2010 06:00 88.36 12.81 2.5 DEPRESSION tropicale 998 30 kt, 55 km/h 42 kt, 78 km/h
23/03/2010 12:00 87.64 13.26 2.5 DEPRESSION tropicale 997 30 kt, 55 km/h 42 kt, 78 km/h
23/03/2010 18:00 86.98 13.84 2.5 TEMPETE tropicale moderée 995 35 kt, 64 km/h 49 kt, 91 km/h
24/03/2010 00:00 86.42 14.59 3.0 TEMPETE tropicale moderée 992 40 kt, 74 km/h 56 kt, 104 km/h
24/03/2010 06:00 86.10 15.50 3.5 TEMPETE tropicale moderée 987 45 kt, 83 km/h 63 kt, 117 km/h
24/03/2010 12:00 85.76 16.61 4.0 Forte TEMPETE tropicale 976 57 kt, 105 km/h 80 kt, 148 km/h
24/03/2010 18:00 85.26 17.66 4.0 Forte TEMPETE tropicale 974 60 kt, 111 km/h 84 kt, 156 km/h
25/03/2010 00:00 85.31 18.43 4.5 CYCLONE tropical 970 65 kt, 120 km/h 91 kt, 169 km/h
25/03/2010 06:00 85.49 19.27 4.5 CYCLONE tropical 965 70 kt, 129 km/h 98 kt, 182 km/h
25/03/2010 12:00 85.79 19.90 4.5 CYCLONE tropical 965 70 kt, 129 km/h 98 kt, 182 km/h
25/03/2010 18:00 85.87 20.28 4.0 Forte TEMPETE tropicale 974 60 kt, 111 km/h 84 kt, 156 km/h
26/03/2010 00:00 86.02 20.70 3.5 Forte TEMPETE tropicale 983 50 kt, 92 km/h 70 kt, 130 km/h
26/03/2010 06:00 86.32 21.10 3.0 TEMPETE tropicale moderée 992 40 kt, 74 km/h 56 kt, 104 km/h
26/03/2010 12:00 86.75 21.30 2.5 DEPRESSION tropicale 997 30 kt, 55 km/h 42 kt, 78 km/h
26/03/2010 18:00 86.79 21.13 2.0 Perturbation tropicale 1000 25 kt, 46 km/h 35 kt, 65 km/h
27/03/2010 00:00 86.66 21.39 2.0 Perturbation tropicale 1002 25 kt, 46 km/h 35 kt, 65 km/h
27/03/2010 06:00 86.39 21.64 1.5 DEPRESSION se comblant 1004 23 kt, 42 km/h 32 kt, 60 km/h
27/03/2010 12:00 85.90 22.06   DEPRESSION se comblant 1005 23 kt, 42 km/h 32 kt, 60 km/h
27/03/2010 18:00 85.00 22.26   DEPRESSION se comblant 1007 20 kt, 37 km/h 28 kt, 52 km/h
28/03/2010 00:00 84.20 22.43   DEPRESSION se comblant 1007 20 kt, 37 km/h 28 kt, 52 km/h
28/03/2010 06:00 83.48 22.93   DEPRESSION se comblant 1008 20 kt, 37 km/h 28 kt, 52 km/h
28/03/2010 12:00 83.15 23.61   DEPRESSION se comblant 1008 20 kt, 37 km/h 28 kt, 52 km/h